Date,TemperatureHighF,TemperatureAvgF,TemperatureLowF,DewpointHighF,DewpointAvgF,DewpointLowF,HumidityHigh,HumidityAvg,HumidityLow,PressureMaxIn,PressureMinIn,WindSpeedMaxMPH,WindSpeedAvgMPH,GustSpeedMaxMPH,PrecipitationSumIn
2013-1-1,48,42,0,44,35,-6,86,75,67,30.26,29.99,22,1,22,0.00
2013-1-2,43,38,35,36,29,27,78,68,59,30.31,30.21,8,0,8,0.00
2013-1-3,54,42,32,34,29,25,76,62,42,30.43,30.28,12,0,12,0.00
2013-1-4,56,44,0,35,30,-11,64,57,44,30.48,30.31,0,0,0,0.00
2013-1-5,60,48,42,39,37,-10,80,67,47,30.32,30.16,8,0,8,0.00
2013-1-6,62,48,38,35,30,26,73,52,29,30.37,30.24,11,0,11,0.00
2013-1-7,56,46,36,35,30,25,67,54,41,30.30,30.05,12,0,12,0.00
2013-1-8,50,49,48,46,41,32,89,75,54,30.07,29.93,10,0,10,1.69
2013-1-9,56,53,49,55,51,46,95,93,90,30.09,29.88,16,1,16,1.08
2013-1-10,61,55,52,55,50,45,95,82,66,29.95,29.86,12,1,12,0.04
2013-1-11,71,60,50,61,50,43,87,71,47,29.91,29.72,12,2,12,0.00
2013-1-12,68,57,39,63,50,29,92,80,65,29.93,29.65,13,3,14,0.10
2013-1-13,50,40,34,32,25,20,69,55,40,30.25,29.90,14,4,14,0.00
2013-1-14,52,40,33,27,23,19,59,50,38,30.31,30.17,11,2,11,0.00
2013-1-15,41,37,34,31,26,22,75,64,53,30.20,30.12,11,1,11,0.02
2013-1-16,54,40,29,31,21,18,64,48,31,30.27,30.12,10,0,10,0.00
2013-1-17,64,50,39,36,30,23,65,48,32,30.46,30.20,10,1,10,0.00
2013-1-18,66,51,39,37,33,28,68,51,32,30.47,30.22,11,1,11,0.00
2013-1-19,69,55,45,45,40,34,72,58,29,30.22,30.08,11,1,11,0.00
2013-1-20,73,57,44,47,41,37,77,58,37,30.18,30.02,8,0,8,0.00
2013-1-21,63,52,45,40,33,26,67,48,35,30.27,30.07,11,1,11,0.00
2013-1-22,68,54,43,48,38,28,67,54,44,30.27,30.12,9,0,9,0.00
2013-1-23,78,64,54,56,52,45,79,66,46,30.22,30.07,11,1,11,0.00
2013-1-24,82,66,56,60,53,44,80,63,46,30.14,29.97,9,0,9,0.00
2013-1-25,59,53,50,48,43,38,81,69,58,30.17,29.99,11,1,11,0.00
2013-1-26,58,52,48,49,44,38,87,76,64,30.19,30.05,7,0,7,0.00
2013-1-27,74,63,52,62,56,48,93,80,59,30.05,29.87,16,2,16,0.00
2013-1-28,78,72,67,66,64,62,87,77,62,29.95,29.79,14,4,14,0.00
2013-1-29,79,68,56,66,58,31,84,73,39,29.80,29.40,15,4,15,0.33
2013-1-30,56,50,44,36,28,20,65,44,28,30.10,29.63,13,3,13,0.00
2013-1-31,70,53,40,31,27,23,55,38,19,30.28,30.03,10,1,10,0.00